createdAt,value
2022-11-16T00:04:19.793Z,9.75
2022-11-16T00:14:29.024Z,9.68
2022-11-16T00:24:35.456Z,9.85
2022-11-16T00:34:41.759Z,9.90
2022-11-16T00:44:48.011Z,9.62
2022-11-16T00:54:54.258Z,9.49
2022-11-16T01:05:00.549Z,9.56
2022-11-16T01:15:10.834Z,9.47
2022-11-16T01:25:17.518Z,9.51
2022-11-16T01:35:23.776Z,9.54
2022-11-16T01:45:35.486Z,9.47
2022-11-16T01:55:43.794Z,9.62
2022-11-16T02:06:00.237Z,9.65
2022-11-16T02:16:20.669Z,9.72
2022-11-16T02:26:37.602Z,9.76
2022-11-16T02:36:45.575Z,9.82
2022-11-16T02:46:56.973Z,9.85
2022-11-16T02:57:06.236Z,9.94
2022-11-16T03:07:15.449Z,9.90
2022-11-16T03:17:27.541Z,9.97
2022-11-16T03:28:01.806Z,9.92
2022-11-16T03:38:09.492Z,9.71
2022-11-16T03:48:15.786Z,9.92
2022-11-16T03:58:22.292Z,9.98
2022-11-16T04:08:47.105Z,10.09
2022-11-16T04:19:12.113Z,10.11
2022-11-16T04:29:18.414Z,10.23
2022-11-16T04:39:24.703Z,10.27
2022-11-16T04:49:30.986Z,10.22
2022-11-16T04:59:37.297Z,10.31
2022-11-16T05:09:47.764Z,10.05
2022-11-16T05:20:13.013Z,9.92
2022-11-16T05:30:19.347Z,10.04
2022-11-16T05:40:25.622Z,10.03
2022-11-16T05:50:31.884Z,9.96
2022-11-16T06:00:38.161Z,9.89
2022-11-16T06:10:44.443Z,9.85
2022-11-16T06:20:50.804Z,9.80
2022-11-16T06:30:57.318Z,9.60
2022-11-16T06:41:03.719Z,9.84
2022-11-16T06:51:09.991Z,9.79
2022-11-16T07:01:16.311Z,9.84
2022-11-16T07:11:23.023Z,9.90
2022-11-16T07:21:29.390Z,9.98
2022-11-16T07:31:35.678Z,10.02
2022-11-16T07:41:43.730Z,10.10
2022-11-16T07:51:50.061Z,10.22
2022-11-16T08:01:56.964Z,10.28
2022-11-16T08:12:03.313Z,10.27
2022-11-16T08:22:10.041Z,10.48
2022-11-16T08:32:16.314Z,10.64
2022-11-16T08:42:23.009Z,10.90
2022-11-16T08:52:29.299Z,11.02
2022-11-16T09:02:35.577Z,11.10
2022-11-16T09:12:42.256Z,11.05
2022-11-16T09:22:48.533Z,10.58
2022-11-16T09:32:54.863Z,10.84
2022-11-16T09:43:07.648Z,10.85
2022-11-16T09:53:25.574Z,10.69
2022-11-16T10:03:34.425Z,10.72
2022-11-16T10:13:54.127Z,10.68
2022-11-16T10:24:21.966Z,10.66
2022-11-16T10:34:31.737Z,10.58
2022-11-16T10:44:45.806Z,10.59
2022-11-16T10:54:52.569Z,10.53
2022-11-16T11:05:18.953Z,10.48
2022-11-16T11:15:27.658Z,10.47
2022-11-16T11:25:37.365Z,10.47
2022-11-16T11:35:44.056Z,10.31
2022-11-16T11:45:55.966Z,10.36
2022-11-16T11:56:02.333Z,10.35
2022-11-16T12:06:29.225Z,10.36
2022-11-16T12:16:58.629Z,10.31
2022-11-16T12:27:19.750Z,10.26
2022-11-16T12:37:40.741Z,10.20
2022-11-16T12:48:10.004Z,10.12
2022-11-16T12:58:45.954Z,9.53
2022-11-16T13:09:02.860Z,9.54
2022-11-16T13:19:12.842Z,9.33
2022-11-16T13:29:31.479Z,9.37
2022-11-16T13:39:59.349Z,9.23
2022-11-16T13:50:08.182Z,9.26
2022-11-16T14:00:27.622Z,9.19
2022-11-16T14:10:37.137Z,9.11
2022-11-16T14:20:57.606Z,9.03
2022-11-16T14:31:24.318Z,9.09
2022-11-16T14:41:30.606Z,9.00
2022-11-16T14:51:39.217Z,9.05
2022-11-16T15:01:45.523Z,9.06
2022-11-16T15:12:11.844Z,9.11
2022-11-16T15:22:19.585Z,8.95
2022-11-16T15:32:25.842Z,9.00
2022-11-16T15:42:32.126Z,8.89
2022-11-16T15:52:45.595Z,8.90
2022-11-16T16:02:52.662Z,8.75
2022-11-16T16:13:01.032Z,8.89
2022-11-16T16:23:14.231Z,8.69
2022-11-16T16:33:20.985Z,8.19
2022-11-16T16:43:28.390Z,7.78
2022-11-16T16:53:34.888Z,7.86
2022-11-16T17:03:41.461Z,7.87
2022-11-16T17:13:47.736Z,7.65
2022-11-16T17:23:53.989Z,7.49
2022-11-16T17:34:00.689Z,7.48
2022-11-16T17:44:07.462Z,7.66
2022-11-16T17:54:13.800Z,7.42
2022-11-16T18:04:20.072Z,7.59
2022-11-16T18:14:27.443Z,7.71
2022-11-16T18:24:33.751Z,7.57
2022-11-16T18:34:40.024Z,7.38
2022-11-16T18:44:46.939Z,7.32
2022-11-16T18:54:53.206Z,7.35
2022-11-16T19:04:59.926Z,7.33
2022-11-16T19:15:06.575Z,7.17
2022-11-16T19:25:13.417Z,7.01
2022-11-16T19:35:19.672Z,7.02
2022-11-16T19:45:26.001Z,6.70
2022-11-16T19:55:33.406Z,6.66
2022-11-16T20:05:39.673Z,6.28
2022-11-16T20:15:46.002Z,6.29
2022-11-16T20:25:52.293Z,5.95
2022-11-16T20:36:05.889Z,5.67
2022-11-16T20:46:14.510Z,5.73
2022-11-16T20:56:21.551Z,5.51
2022-11-16T21:06:28.663Z,5.28
2022-11-16T21:16:35.568Z,5.22
2022-11-16T21:26:41.861Z,5.27
2022-11-16T21:36:48.662Z,4.83
2022-11-16T21:46:55.529Z,4.68
2022-11-16T21:57:01.785Z,4.46
2022-11-16T22:07:31.651Z,4.43
2022-11-16T22:17:38.020Z,4.47
2022-11-16T22:28:13.777Z,4.15
2022-11-16T22:38:14.398Z,4.35
2022-11-16T22:48:20.698Z,4.31
2022-11-16T22:58:26.980Z,4.22
2022-11-16T23:08:34.098Z,3.91
2022-11-16T23:18:40.376Z,4.10
2022-11-16T23:28:46.667Z,3.85
2022-11-16T23:38:52.987Z,3.71
2022-11-16T23:48:59.634Z,3.69
2022-11-16T23:59:05.957Z,3.67
